createdAt,value
2023-04-09T00:01:09.953Z,97.43
2023-04-09T00:03:37.379Z,97.60
2023-04-09T00:06:05.956Z,97.83
2023-04-09T00:08:32.828Z,97.21
2023-04-09T00:10:59.862Z,97.78
2023-04-09T00:13:38.569Z,97.37
2023-04-09T00:16:06.889Z,97.81
2023-04-09T00:18:33.490Z,97.74
2023-04-09T00:21:00.065Z,98.47
2023-04-09T00:23:27.986Z,98.68
2023-04-09T00:25:54.646Z,98.36
2023-04-09T00:28:21.221Z,98.59
2023-04-09T00:30:47.884Z,98.95
2023-04-09T00:33:15.582Z,98.69
2023-04-09T00:35:42.159Z,98.52
2023-04-09T00:38:08.787Z,98.26
2023-04-09T00:40:36.847Z,98.44
2023-04-09T00:43:03.544Z,97.71
2023-04-09T00:45:30.229Z,97.38
2023-04-09T00:47:57.041Z,97.95
2023-04-09T00:50:23.709Z,98.40
2023-04-09T00:52:50.414Z,98.80
2023-04-09T00:55:18.172Z,98.41
2023-04-09T00:57:46.219Z,98.82
2023-04-09T01:00:14.090Z,98.65
2023-04-09T01:02:41.215Z,98.33
2023-04-09T01:05:08.817Z,98.53
2023-04-09T01:07:47.735Z,98.78
2023-04-09T01:10:20.011Z,98.12
2023-04-09T01:13:01.152Z,97.79
2023-04-09T01:15:31.180Z,97.57
2023-04-09T01:18:05.193Z,98.12
2023-04-09T01:20:38.215Z,97.97
2023-04-09T01:23:20.088Z,97.82
2023-04-09T01:26:03.474Z,97.97
2023-04-09T01:28:45.008Z,98.54
2023-04-09T01:31:14.145Z,98.60
2023-04-09T01:33:42.064Z,98.62
2023-04-09T01:36:09.534Z,97.99
2023-04-09T01:38:38.988Z,98.51
2023-04-09T01:41:07.677Z,97.70
2023-04-09T01:43:34.842Z,98.06
2023-04-09T01:46:04.000Z,97.32
2023-04-09T01:48:32.634Z,97.35
2023-04-09T01:50:59.352Z,97.40
2023-04-09T01:53:25.909Z,96.96
2023-04-09T01:55:52.459Z,96.78
2023-04-09T01:58:19.060Z,97.02
2023-04-09T02:00:48.588Z,96.81
2023-04-09T02:03:21.575Z,96.77
2023-04-09T02:05:55.638Z,97.17
2023-04-09T02:08:24.648Z,97.05
2023-04-09T02:10:56.333Z,97.59
2023-04-09T02:13:24.378Z,97.41
2023-04-09T02:15:51.699Z,97.39
2023-04-09T02:18:24.152Z,97.03
2023-04-09T02:20:52.127Z,97.68
2023-04-09T02:23:18.697Z,97.58
2023-04-09T02:25:45.738Z,97.52
2023-04-09T02:28:12.326Z,97.12
2023-04-09T02:30:38.960Z,96.85
2023-04-09T02:33:05.649Z,96.91
2023-04-09T02:35:33.734Z,97.25
2023-04-09T02:38:00.728Z,97.56
2023-04-09T02:40:27.686Z,97.03
2023-04-09T02:42:54.466Z,97.64
2023-04-09T02:45:21.210Z,97.60
2023-04-09T02:47:47.779Z,97.61
2023-04-09T02:50:14.719Z,98.10
2023-04-09T02:52:48.831Z,98.03
2023-04-09T02:55:15.604Z,97.96
2023-04-09T02:57:42.158Z,98.06
2023-04-09T03:00:10.151Z,98.55
2023-04-09T03:02:37.023Z,98.51
2023-04-09T03:05:04.970Z,99.02
2023-04-09T03:07:31.523Z,98.65
2023-04-09T03:09:59.893Z,98.49
2023-04-09T03:12:26.982Z,98.57
2023-04-09T03:14:53.975Z,99.05
2023-04-09T03:17:20.515Z,99.92
2023-04-09T03:19:47.312Z,99.66
2023-04-09T03:22:15.633Z,99.87
2023-04-09T03:24:42.775Z,99.58
2023-04-09T03:27:10.915Z,99.57
2023-04-09T03:29:38.220Z,99.77
2023-04-09T03:32:05.995Z,100.00
2023-04-09T03:34:32.714Z,100.00
2023-04-09T03:36:59.411Z,100.00
2023-04-09T03:39:29.887Z,100.00
2023-04-09T03:41:56.854Z,100.00
2023-04-09T03:44:25.086Z,100.00
2023-04-09T03:47:07.496Z,100.00
2023-04-09T03:49:35.843Z,100.00
2023-04-09T03:52:11.640Z,100.00
2023-04-09T03:54:42.072Z,100.00
2023-04-09T03:57:13.241Z,100.00
2023-04-09T03:59:43.844Z,99.99
2023-04-09T04:02:11.838Z,99.86
2023-04-09T04:04:43.729Z,99.63
2023-04-09T04:07:11.181Z,99.49
2023-04-09T04:09:45.034Z,98.96
2023-04-09T04:12:15.481Z,99.18
2023-04-09T04:15:16.099Z,98.79
2023-04-09T04:17:50.730Z,98.55
2023-04-09T04:20:25.755Z,98.96
2023-04-09T04:22:58.857Z,98.50
2023-04-09T04:25:27.163Z,98.81
2023-04-09T04:27:55.130Z,99.11
2023-04-09T04:30:27.471Z,98.76
2023-04-09T04:33:04.504Z,98.03
2023-04-09T04:35:39.009Z,97.94
2023-04-09T04:38:08.892Z,97.80
2023-04-09T04:40:37.861Z,97.58
2023-04-09T04:43:05.524Z,97.63
2023-04-09T04:45:33.467Z,97.93
2023-04-09T04:48:05.601Z,97.89
2023-04-09T04:50:32.223Z,97.74
2023-04-09T04:53:06.135Z,97.12
2023-04-09T04:55:40.675Z,96.85
2023-04-09T04:58:10.638Z,96.58
2023-04-09T05:00:52.452Z,96.99
2023-04-09T05:03:19.330Z,97.29
2023-04-09T05:06:06.195Z,96.83
2023-04-09T05:08:40.455Z,96.48
2023-04-09T05:11:11.473Z,97.01
2023-04-09T05:13:38.640Z,97.23
2023-04-09T05:16:15.985Z,97.43
2023-04-09T05:18:43.616Z,97.01
2023-04-09T05:21:11.165Z,97.15
2023-04-09T05:23:39.128Z,97.19
2023-04-09T05:26:05.743Z,97.92
2023-04-09T05:28:46.169Z,97.71
2023-04-09T05:31:18.300Z,98.03
2023-04-09T05:33:55.192Z,97.52
2023-04-09T05:36:31.316Z,97.79
2023-04-09T05:38:58.530Z,97.68
2023-04-09T05:41:25.399Z,96.90
2023-04-09T05:44:11.044Z,96.85
2023-04-09T05:46:40.392Z,97.11
2023-04-09T05:49:08.070Z,97.35
2023-04-09T05:51:38.669Z,97.16
2023-04-09T05:54:06.214Z,97.34
2023-04-09T05:56:36.506Z,96.72
2023-04-09T05:59:04.870Z,96.91
2023-04-09T06:01:31.524Z,97.20
2023-04-09T06:03:59.750Z,96.76
2023-04-09T06:06:29.777Z,96.81
2023-04-09T06:08:56.367Z,96.31
2023-04-09T06:11:22.924Z,96.41
2023-04-09T06:13:49.822Z,95.45
2023-04-09T06:16:16.495Z,95.29
2023-04-09T06:18:43.131Z,95.09
2023-04-09T06:21:11.042Z,95.08
2023-04-09T06:23:37.568Z,94.58
2023-04-09T06:26:04.133Z,94.33
2023-04-09T06:28:31.142Z,94.39
2023-04-09T06:30:58.036Z,94.31
2023-04-09T06:33:24.951Z,94.20
2023-04-09T06:35:51.567Z,92.83
2023-04-09T06:38:19.507Z,93.56
2023-04-09T06:40:46.213Z,93.13
2023-04-09T06:43:12.828Z,92.93
2023-04-09T06:45:50.178Z,92.79
2023-04-09T06:48:16.906Z,91.39
2023-04-09T06:50:44.053Z,92.07
2023-04-09T06:53:10.741Z,91.21
2023-04-09T06:55:38.707Z,90.88
2023-04-09T06:58:05.436Z,90.73
2023-04-09T07:00:32.082Z,90.98
2023-04-09T07:02:59.037Z,90.56
2023-04-09T07:05:25.811Z,90.75
2023-04-09T07:07:52.542Z,90.52
2023-04-09T07:10:19.097Z,89.22
2023-04-09T07:12:47.109Z,88.52
2023-04-09T07:15:13.636Z,87.13
2023-04-09T07:17:41.248Z,82.10
2023-04-09T07:20:08.484Z,78.46
2023-04-09T07:22:35.742Z,78.23
2023-04-09T07:25:02.298Z,77.15
2023-04-09T07:27:29.182Z,75.38
2023-04-09T07:29:57.933Z,75.42
2023-04-09T07:32:25.188Z,76.09
2023-04-09T07:34:52.422Z,75.54
2023-04-09T07:37:19.281Z,73.54
2023-04-09T07:39:45.989Z,73.60
2023-04-09T07:42:12.948Z,71.79
2023-04-09T07:44:39.840Z,73.03
2023-04-09T07:47:08.291Z,71.07
2023-04-09T07:49:35.864Z,70.72
2023-04-09T07:52:02.587Z,69.44
2023-04-09T07:54:29.133Z,70.24
2023-04-09T07:56:55.685Z,69.72
2023-04-09T07:59:22.253Z,70.00
2023-04-09T08:01:49.073Z,67.29
2023-04-09T08:04:17.395Z,66.96
2023-04-09T08:06:44.033Z,67.19
2023-04-09T08:09:10.563Z,67.73
2023-04-09T08:11:37.153Z,67.76
2023-04-09T08:14:03.771Z,68.34
2023-04-09T08:16:30.539Z,66.12
2023-04-09T08:18:57.311Z,65.82
2023-04-09T08:21:25.296Z,66.41
2023-04-09T08:23:51.916Z,65.71
2023-04-09T08:26:18.733Z,62.95
2023-04-09T08:28:45.232Z,64.19
2023-04-09T08:31:11.839Z,64.05
2023-04-09T08:33:38.350Z,61.87
2023-04-09T08:36:08.459Z,64.14
2023-04-09T08:38:36.342Z,62.48
2023-04-09T08:41:02.956Z,62.57
2023-04-09T08:43:52.625Z,61.52
2023-04-09T08:46:19.009Z,61.00
2023-04-09T08:48:46.656Z,60.79
2023-04-09T08:51:13.985Z,60.53
2023-04-09T08:53:44.400Z,60.31
2023-04-09T08:56:10.997Z,58.88
2023-04-09T08:58:37.513Z,57.71
2023-04-09T09:01:04.185Z,57.31
2023-04-09T09:03:30.912Z,58.33
2023-04-09T09:05:57.562Z,56.58
2023-04-09T09:08:26.064Z,54.42
2023-04-09T09:10:54.016Z,53.83
2023-04-09T09:13:23.310Z,53.58
2023-04-09T09:15:50.538Z,51.46
2023-04-09T09:18:17.665Z,53.12
2023-04-09T09:20:44.287Z,52.33
2023-04-09T09:23:10.896Z,53.26
2023-04-09T09:25:41.606Z,54.63
2023-04-09T09:28:11.694Z,53.13
2023-04-09T09:30:39.338Z,52.85
2023-04-09T09:33:07.692Z,51.40
2023-04-09T09:35:48.129Z,52.28
2023-04-09T09:38:14.974Z,53.17
2023-04-09T09:40:41.909Z,52.94
2023-04-09T09:43:10.251Z,50.43
2023-04-09T09:45:37.066Z,51.35
2023-04-09T09:48:05.052Z,49.25
2023-04-09T09:50:34.330Z,49.85
2023-04-09T09:53:03.521Z,49.37
2023-04-09T09:55:31.618Z,47.48
2023-04-09T09:58:01.551Z,47.99
2023-04-09T10:00:32.343Z,48.68
2023-04-09T10:03:12.249Z,48.52
2023-04-09T10:05:41.282Z,47.45
2023-04-09T10:08:08.109Z,47.73
2023-04-09T10:10:36.044Z,48.25
2023-04-09T10:13:05.273Z,48.14
2023-04-09T10:15:33.667Z,46.58
2023-04-09T10:18:00.256Z,45.92
2023-04-09T10:20:32.533Z,46.21
2023-04-09T10:23:05.920Z,45.72
2023-04-09T10:25:32.637Z,45.57
2023-04-09T10:28:00.354Z,45.36
2023-04-09T10:30:35.979Z,44.30
2023-04-09T10:33:10.427Z,45.53
2023-04-09T10:35:37.149Z,44.37
2023-04-09T10:38:03.824Z,44.82
2023-04-09T10:40:30.452Z,42.63
2023-04-09T10:42:59.499Z,43.79
2023-04-09T10:45:40.925Z,42.33
2023-04-09T10:48:12.005Z,43.88
2023-04-09T10:50:39.490Z,43.76
2023-04-09T10:53:06.010Z,43.38
2023-04-09T10:55:38.004Z,42.58
2023-04-09T10:58:05.497Z,44.40
2023-04-09T11:00:36.598Z,44.37
2023-04-09T11:03:19.959Z,43.93
2023-04-09T11:05:48.560Z,42.46
2023-04-09T11:08:16.250Z,42.48
2023-04-09T11:10:44.510Z,42.75
2023-04-09T11:13:11.999Z,43.18
2023-04-09T11:15:39.077Z,42.48
2023-04-09T11:18:06.389Z,42.47
2023-04-09T11:20:34.626Z,42.99
2023-04-09T11:23:01.618Z,42.77
2023-04-09T11:25:30.731Z,42.41
2023-04-09T11:27:57.879Z,42.83
2023-04-09T11:30:24.623Z,43.48
2023-04-09T11:32:51.382Z,43.51
2023-04-09T11:35:21.053Z,44.12
2023-04-09T11:37:49.930Z,43.98
2023-04-09T11:40:17.488Z,42.86
2023-04-09T11:42:44.324Z,43.38
2023-04-09T11:45:12.171Z,42.08
2023-04-09T11:47:40.449Z,42.13
2023-04-09T11:50:08.946Z,41.70
2023-04-09T11:52:36.108Z,42.49
2023-04-09T11:55:05.197Z,43.73
2023-04-09T11:57:40.047Z,43.84
2023-04-09T12:00:09.548Z,42.49
2023-04-09T12:02:38.642Z,41.27
2023-04-09T12:05:06.259Z,42.47
2023-04-09T12:07:33.373Z,41.50
2023-04-09T12:10:05.575Z,40.45
2023-04-09T12:12:39.881Z,40.08
2023-04-09T12:15:11.063Z,40.70
2023-04-09T12:17:37.757Z,41.68
2023-04-09T12:20:05.244Z,40.45
2023-04-09T12:22:31.870Z,41.52
2023-04-09T12:24:58.426Z,40.98
2023-04-09T12:27:26.482Z,41.51
2023-04-09T12:29:53.014Z,41.33
2023-04-09T12:32:19.986Z,42.35
2023-04-09T12:34:46.613Z,41.92
2023-04-09T12:37:13.419Z,41.93
2023-04-09T12:39:39.948Z,40.15
2023-04-09T12:42:06.560Z,41.68
2023-04-09T12:44:34.478Z,40.84
2023-04-09T12:47:01.251Z,41.50
2023-04-09T12:49:27.781Z,41.83
2023-04-09T12:51:54.377Z,42.60
2023-04-09T12:54:21.180Z,42.12
2023-04-09T12:56:47.764Z,43.16
2023-04-09T12:59:14.280Z,42.63
2023-04-09T13:01:43.590Z,41.84
2023-04-09T13:04:10.309Z,40.69
2023-04-09T13:06:36.953Z,41.41
2023-04-09T13:09:03.614Z,41.23
2023-04-09T13:11:30.240Z,41.86
2023-04-09T13:13:56.735Z,41.22
2023-04-09T13:16:23.377Z,42.29
2023-04-09T13:18:51.457Z,41.70
2023-04-09T13:21:18.220Z,41.23
2023-04-09T13:23:44.815Z,41.21
2023-04-09T13:26:11.374Z,42.35
2023-04-09T13:28:37.864Z,42.49
2023-04-09T13:31:05.811Z,42.15
2023-04-09T13:33:32.353Z,42.78
2023-04-09T13:36:00.235Z,42.21
2023-04-09T13:38:26.785Z,41.26
2023-04-09T13:40:53.432Z,41.49
2023-04-09T13:43:20.016Z,41.61
2023-04-09T13:45:46.612Z,40.96
2023-04-09T13:48:15.159Z,42.01
2023-04-09T13:50:42.084Z,41.37
2023-04-09T13:53:09.961Z,42.72
2023-04-09T13:55:36.582Z,40.94
2023-04-09T13:58:03.086Z,41.58
2023-04-09T14:00:30.873Z,40.87
2023-04-09T14:02:57.633Z,40.76
2023-04-09T14:05:24.297Z,41.68
2023-04-09T14:07:50.833Z,41.03
2023-04-09T14:10:18.814Z,40.89
2023-04-09T14:12:45.600Z,40.72
2023-04-09T14:15:12.193Z,39.01
2023-04-09T14:17:39.772Z,39.20
2023-04-09T14:20:07.493Z,41.33
2023-04-09T14:22:33.981Z,39.98
2023-04-09T14:25:00.791Z,40.40
2023-04-09T14:27:28.675Z,40.51
2023-04-09T14:29:55.379Z,40.91
2023-04-09T14:32:21.946Z,40.35
2023-04-09T14:34:48.585Z,39.59
2023-04-09T14:37:15.068Z,40.66
2023-04-09T14:39:41.682Z,39.25
2023-04-09T14:42:08.210Z,38.96
2023-04-09T14:44:36.162Z,39.56
2023-04-09T14:47:02.812Z,38.82
2023-04-09T14:49:29.482Z,39.41
2023-04-09T14:51:55.993Z,39.18
2023-04-09T14:54:22.601Z,39.18
2023-04-09T14:56:49.114Z,39.19
2023-04-09T14:59:15.689Z,38.43
2023-04-09T15:01:43.620Z,39.37
2023-04-09T15:04:10.378Z,39.19
2023-04-09T15:06:36.947Z,40.15
2023-04-09T15:09:03.559Z,39.68
2023-04-09T15:11:30.048Z,38.38
2023-04-09T15:13:56.616Z,37.38
2023-04-09T15:16:24.330Z,37.64
2023-04-09T15:18:53.069Z,37.42
2023-04-09T15:21:19.757Z,37.14
2023-04-09T15:23:46.313Z,36.24
2023-04-09T15:26:13.086Z,37.08
2023-04-09T15:28:39.714Z,37.91
2023-04-09T15:31:06.407Z,38.16
2023-04-09T15:33:33.020Z,37.60
2023-04-09T15:36:00.879Z,36.21
2023-04-09T15:38:27.474Z,36.17
2023-04-09T15:40:56.010Z,37.25
2023-04-09T15:43:22.919Z,37.45
2023-04-09T15:45:49.726Z,36.08
2023-04-09T15:48:16.578Z,37.09
2023-04-09T15:50:43.166Z,36.21
2023-04-09T15:53:11.141Z,36.58
2023-04-09T15:55:37.700Z,36.71
2023-04-09T15:58:04.244Z,36.20
2023-04-09T16:00:30.822Z,36.33
2023-04-09T16:02:57.456Z,36.65
2023-04-09T16:05:24.227Z,36.17
2023-04-09T16:07:50.988Z,36.01
2023-04-09T16:10:18.996Z,36.28
2023-04-09T16:12:45.540Z,35.25
2023-04-09T16:15:12.084Z,35.10
2023-04-09T16:17:40.942Z,35.31
2023-04-09T16:20:08.612Z,35.36
2023-04-09T16:22:35.464Z,34.54
2023-04-09T16:25:02.258Z,34.81
2023-04-09T16:27:30.577Z,34.67
2023-04-09T16:29:57.182Z,34.06
2023-04-09T16:32:23.775Z,32.90
2023-04-09T16:34:50.303Z,32.00
2023-04-09T16:37:17.047Z,33.51
2023-04-09T16:39:43.633Z,32.63
2023-04-09T16:42:10.196Z,32.78
2023-04-09T16:44:38.327Z,33.00
2023-04-09T16:47:05.289Z,32.37
2023-04-09T16:49:31.794Z,33.44
2023-04-09T16:51:58.399Z,33.37
2023-04-09T16:54:25.002Z,33.67
2023-04-09T16:56:51.586Z,33.48
2023-04-09T16:59:18.119Z,33.48
2023-04-09T17:01:46.435Z,34.45
2023-04-09T17:04:13.180Z,33.02
2023-04-09T17:06:39.851Z,31.94
2023-04-09T17:09:06.360Z,32.64
2023-04-09T17:11:33.061Z,32.58
2023-04-09T17:13:59.726Z,32.83
2023-04-09T17:16:26.633Z,32.90
2023-04-09T17:18:54.837Z,33.48
2023-04-09T17:21:21.728Z,34.27
2023-04-09T17:23:48.238Z,34.53
2023-04-09T17:26:15.242Z,35.11
2023-04-09T17:28:41.865Z,35.72
2023-04-09T17:31:12.563Z,36.07
2023-04-09T17:33:39.239Z,36.34
2023-04-09T17:36:07.756Z,35.99
2023-04-09T17:38:34.330Z,36.99
2023-04-09T17:41:01.178Z,38.64
2023-04-09T17:43:27.879Z,38.98
2023-04-09T17:45:54.444Z,39.01
2023-04-09T17:48:21.085Z,38.92
2023-04-09T17:50:47.876Z,39.07
2023-04-09T17:53:15.927Z,39.72
2023-04-09T17:55:46.642Z,41.22
2023-04-09T17:58:13.246Z,40.99
2023-04-09T18:00:39.754Z,41.52
2023-04-09T18:03:06.575Z,42.46
2023-04-09T18:05:34.131Z,43.95
2023-04-09T18:08:00.917Z,44.69
2023-04-09T18:10:28.788Z,46.50
2023-04-09T18:12:55.417Z,46.33
2023-04-09T18:15:22.016Z,46.82
2023-04-09T18:17:48.697Z,47.08
2023-04-09T18:20:15.705Z,47.91
2023-04-09T18:22:42.572Z,49.23
2023-04-09T18:25:09.684Z,50.01
2023-04-09T18:27:37.722Z,50.06
2023-04-09T18:30:05.249Z,50.17
2023-04-09T18:32:31.855Z,51.06
2023-04-09T18:34:58.493Z,51.65
2023-04-09T18:37:25.105Z,51.76
2023-04-09T18:39:51.602Z,52.54
2023-04-09T18:42:18.247Z,52.97
2023-04-09T18:44:46.104Z,53.66
2023-04-09T18:47:12.747Z,54.27
2023-04-09T18:49:39.285Z,54.89
2023-04-09T18:52:05.862Z,55.84
2023-04-09T18:54:32.362Z,57.00
2023-04-09T18:56:58.945Z,57.30
2023-04-09T18:59:25.458Z,58.14
2023-04-09T19:01:53.491Z,58.91
2023-04-09T19:04:20.080Z,59.27
2023-04-09T19:06:46.736Z,60.01
2023-04-09T19:09:13.209Z,59.91
2023-04-09T19:11:39.881Z,60.94
2023-04-09T19:14:06.354Z,60.96
2023-04-09T19:16:33.028Z,61.14
2023-04-09T19:19:00.907Z,61.76
2023-04-09T19:21:27.487Z,61.76
2023-04-09T19:23:53.955Z,62.38
2023-04-09T19:26:20.510Z,63.39
2023-04-09T19:28:47.003Z,64.21
2023-04-09T19:31:13.626Z,64.25
2023-04-09T19:33:40.221Z,64.46
2023-04-09T19:36:08.198Z,64.58
2023-04-09T19:38:34.990Z,65.02
2023-04-09T19:41:01.626Z,66.07
2023-04-09T19:43:28.131Z,66.62
2023-04-09T19:45:54.724Z,65.95
2023-04-09T19:48:21.249Z,66.80
2023-04-09T19:50:47.821Z,67.30
2023-04-09T19:53:15.679Z,68.03
2023-04-09T19:55:42.267Z,67.60
2023-04-09T19:58:08.763Z,68.09
2023-04-09T20:00:35.426Z,68.12
2023-04-09T20:03:02.129Z,68.42
2023-04-09T20:05:29.089Z,68.91
2023-04-09T20:07:55.561Z,69.52
2023-04-09T20:10:23.510Z,69.92
2023-04-09T20:12:51.440Z,69.81
2023-04-09T20:15:18.797Z,70.36
2023-04-09T20:17:46.426Z,69.78
2023-04-09T20:20:13.069Z,70.36
2023-04-09T20:22:39.586Z,70.37
2023-04-09T20:25:06.691Z,71.01
2023-04-09T20:27:34.548Z,71.24
2023-04-09T20:30:01.124Z,71.51
2023-04-09T20:32:27.632Z,71.77
2023-04-09T20:34:54.181Z,71.63
2023-04-09T20:37:20.744Z,71.35
2023-04-09T20:39:47.368Z,72.81
2023-04-09T20:42:14.119Z,73.09
2023-04-09T20:44:42.026Z,73.75
2023-04-09T20:47:08.600Z,73.94
2023-04-09T20:49:35.186Z,73.57
2023-04-09T20:52:01.689Z,73.90
2023-04-09T20:54:28.322Z,75.23
2023-04-09T20:56:54.893Z,74.81
2023-04-09T20:59:21.472Z,74.96
2023-04-09T21:01:49.406Z,75.16
2023-04-09T21:04:16.316Z,74.94
2023-04-09T21:06:42.937Z,75.72
2023-04-09T21:09:09.490Z,75.61
2023-04-09T21:11:36.241Z,76.13
2023-04-09T21:14:02.825Z,76.80
2023-04-09T21:16:29.326Z,76.24
2023-04-09T21:18:57.273Z,77.20
2023-04-09T21:21:24.191Z,77.00
2023-04-09T21:23:50.787Z,77.31
2023-04-09T21:26:17.290Z,77.88
2023-04-09T21:28:44.187Z,77.56
2023-04-09T21:31:11.228Z,78.20
2023-04-09T21:33:38.041Z,78.13
2023-04-09T21:36:06.806Z,78.18
2023-04-09T21:38:33.497Z,78.21
2023-04-09T21:41:00.016Z,78.64
2023-04-09T21:43:26.562Z,79.23
2023-04-09T21:45:53.146Z,78.97
2023-04-09T21:48:19.798Z,79.10
2023-04-09T21:50:46.319Z,78.28
2023-04-09T21:53:14.968Z,79.63
2023-04-09T21:55:41.504Z,79.90
2023-04-09T21:58:08.093Z,80.03
2023-04-09T22:00:34.702Z,80.00
2023-04-09T22:03:01.426Z,80.27
2023-04-09T22:05:28.266Z,79.92
2023-04-09T22:07:55.018Z,79.95
2023-04-09T22:10:23.202Z,80.08
2023-04-09T22:12:50.243Z,79.93
2023-04-09T22:15:17.140Z,80.27
2023-04-09T22:17:43.789Z,79.85
2023-04-09T22:20:10.595Z,80.44
2023-04-09T22:22:37.773Z,79.99
2023-04-09T22:25:05.015Z,80.53
2023-04-09T22:27:33.080Z,80.48
2023-04-09T22:29:59.747Z,81.20
2023-04-09T22:32:26.378Z,81.81
2023-04-09T22:34:52.909Z,81.64
2023-04-09T22:37:19.526Z,82.84
2023-04-09T22:39:46.035Z,83.52
2023-04-09T22:42:12.598Z,83.84
2023-04-09T22:44:40.462Z,83.93
2023-04-09T22:47:07.045Z,83.92
2023-04-09T22:49:33.579Z,84.68
2023-04-09T22:52:00.205Z,84.56
2023-04-09T22:54:26.778Z,84.72
2023-04-09T22:56:53.429Z,84.95
2023-04-09T22:59:22.977Z,84.55
2023-04-09T23:01:51.316Z,84.82
2023-04-09T23:04:17.959Z,85.13
2023-04-09T23:06:44.661Z,85.45
2023-04-09T23:09:11.212Z,85.83
2023-04-09T23:11:37.793Z,85.94
2023-04-09T23:14:04.348Z,85.83
2023-04-09T23:16:31.076Z,85.50
2023-04-09T23:18:58.992Z,85.35
2023-04-09T23:21:25.639Z,85.27
2023-04-09T23:23:52.377Z,85.58
2023-04-09T23:26:19.208Z,86.10
2023-04-09T23:28:45.761Z,85.83
2023-04-09T23:31:12.399Z,85.99
2023-04-09T23:33:38.947Z,86.24
2023-04-09T23:36:07.813Z,86.89
2023-04-09T23:38:34.428Z,87.04
2023-04-09T23:41:01.038Z,87.15
2023-04-09T23:43:27.662Z,87.58
2023-04-09T23:45:54.257Z,88.39
2023-04-09T23:48:20.898Z,88.78
2023-04-09T23:50:47.498Z,88.72
2023-04-09T23:53:15.430Z,89.06
2023-04-09T23:55:42.053Z,89.24
2023-04-09T23:58:09.044Z,89.15
